createdAt,value
2018-06-30T09:04:59.221Z,62.87
2018-06-30T09:07:34.578Z,23.20
2018-06-30T09:10:10.011Z,17.43
2018-06-30T09:12:45.403Z,14.97
2018-06-30T09:15:22.180Z,14.47
2018-06-30T09:17:57.504Z,13.80
2018-06-30T09:20:33.030Z,14.07
2018-06-30T09:23:08.962Z,19.33
2018-06-30T09:25:44.201Z,14.47
2018-06-30T09:28:19.657Z,15.07
2018-06-30T09:30:55.065Z,13.50
2018-06-30T09:33:30.732Z,14.13
2018-06-30T09:36:06.711Z,13.37
2018-06-30T09:38:42.272Z,13.07
2018-06-30T09:41:18.055Z,15.60
2018-06-30T09:43:54.372Z,15.73
2018-06-30T09:46:30.388Z,14.80
2018-06-30T09:49:06.198Z,14.40
2018-06-30T09:51:41.988Z,12.43
2018-06-30T09:54:17.727Z,14.03
2018-06-30T09:56:53.711Z,11.97
2018-06-30T09:59:29.232Z,13.20
2018-06-30T10:02:04.944Z,13.30
2018-06-30T10:04:40.726Z,13.23
2018-06-30T10:07:16.400Z,15.43
2018-06-30T10:09:52.169Z,14.00
2018-06-30T10:12:27.730Z,12.87
2018-06-30T10:15:03.196Z,13.87
2018-06-30T10:17:38.657Z,13.93
2018-06-30T10:20:14.172Z,13.73
2018-06-30T10:22:49.776Z,15.77
2018-06-30T10:25:26.247Z,14.40
2018-06-30T10:28:01.886Z,14.17
2018-06-30T10:30:38.337Z,17.23
2018-06-30T10:33:13.635Z,15.90
2018-06-30T10:35:49.131Z,16.50
2018-06-30T10:38:24.512Z,16.73
2018-06-30T10:41:00.021Z,16.30
2018-06-30T10:43:35.820Z,17.27
2018-06-30T10:46:11.195Z,16.00
2018-06-30T10:48:46.601Z,15.73
2018-06-30T10:51:22.441Z,16.70
2018-06-30T10:53:58.093Z,25.23
2018-06-30T10:56:33.642Z,26.50
2018-06-30T10:59:09.243Z,26.73
2018-06-30T11:01:44.751Z,31.03
2018-06-30T11:04:20.252Z,27.03
2018-06-30T11:06:56.216Z,21.53
2018-06-30T11:09:31.757Z,19.20
2018-06-30T11:12:07.151Z,17.13
2018-06-30T11:14:42.829Z,16.37
2018-06-30T11:17:18.404Z,14.67
2018-06-30T11:19:53.803Z,14.57
2018-06-30T11:22:29.287Z,14.07
2018-06-30T11:25:04.692Z,14.70
2018-06-30T11:27:40.381Z,14.60
2018-06-30T11:30:15.893Z,14.73
2018-06-30T11:32:51.303Z,14.27
2018-06-30T11:35:26.808Z,13.63
2018-06-30T11:38:02.188Z,14.13
2018-06-30T11:40:37.747Z,12.93
2018-06-30T11:43:13.788Z,15.03
2018-06-30T11:45:49.457Z,14.13
2018-06-30T11:48:24.936Z,13.83
2018-06-30T11:51:00.719Z,14.03
2018-06-30T11:53:36.337Z,13.63
2018-06-30T11:56:12.612Z,13.90
2018-06-30T11:58:48.208Z,13.13
2018-06-30T12:01:23.590Z,12.73
2018-06-30T12:03:59.441Z,12.63
2018-06-30T12:06:34.860Z,13.20
2018-06-30T12:09:10.848Z,13.10
2018-06-30T12:11:46.328Z,13.73
2018-06-30T12:14:21.821Z,13.03
2018-06-30T12:16:57.272Z,13.33
2018-06-30T12:19:32.873Z,13.77
2018-06-30T12:22:08.464Z,13.30
2018-06-30T12:24:43.887Z,14.57
2018-06-30T12:27:19.286Z,12.23
2018-06-30T12:30:01.430Z,12.80
2018-06-30T12:32:37.377Z,13.20
2018-06-30T12:35:12.684Z,13.60
2018-06-30T12:37:48.099Z,12.60
2018-06-30T12:40:30.864Z,13.37
2018-06-30T12:43:06.711Z,13.00
2018-06-30T12:45:42.153Z,13.10
2018-06-30T12:48:17.619Z,13.20
2018-06-30T12:50:52.976Z,12.33
2018-06-30T12:53:28.712Z,13.67
2018-06-30T12:56:04.241Z,12.47
2018-06-30T12:58:40.012Z,12.43
2018-06-30T13:01:15.375Z,11.67
2018-06-30T13:03:50.886Z,12.60
2018-06-30T13:06:26.512Z,11.97
2018-06-30T13:09:02.118Z,12.57
2018-06-30T13:11:37.852Z,11.33
2018-06-30T13:14:13.236Z,11.73
2018-06-30T13:16:48.639Z,11.90
2018-06-30T13:19:24.125Z,11.87
2018-06-30T13:21:59.892Z,11.40
2018-06-30T13:24:35.159Z,11.17
2018-06-30T13:27:10.665Z,11.93
2018-06-30T13:29:46.139Z,11.00
2018-06-30T13:32:21.963Z,10.93
2018-06-30T13:34:57.365Z,19.23
2018-06-30T13:37:32.803Z,13.80
2018-06-30T13:40:08.543Z,10.90
2018-06-30T13:42:44.142Z,11.70
2018-06-30T13:45:19.441Z,10.13
2018-06-30T13:47:54.813Z,10.67
2018-06-30T13:50:30.075Z,10.57
2018-06-30T13:53:05.483Z,10.40
2018-06-30T13:55:40.972Z,10.77
2018-06-30T13:58:16.236Z,10.73
2018-06-30T14:00:51.912Z,10.23
2018-06-30T14:03:28.528Z,10.50
2018-06-30T14:06:03.984Z,10.23
2018-06-30T14:08:39.588Z,10.57
2018-06-30T14:11:15.071Z,10.43
2018-06-30T14:13:50.223Z,10.00
2018-06-30T14:16:25.732Z,10.63
2018-06-30T14:19:01.108Z,9.70
2018-06-30T14:21:36.245Z,11.60
2018-06-30T14:24:11.699Z,10.30
2018-06-30T14:26:47.104Z,9.17
2018-06-30T14:29:22.253Z,10.30
2018-06-30T14:31:57.682Z,9.83
2018-06-30T14:34:33.092Z,9.80
2018-06-30T14:37:08.432Z,9.63
2018-06-30T14:39:43.664Z,9.97
2018-06-30T14:42:19.640Z,9.87
2018-06-30T14:44:54.914Z,10.10
2018-06-30T14:47:30.208Z,9.43
2018-06-30T14:50:05.490Z,8.73
2018-06-30T14:52:40.649Z,9.00
2018-06-30T14:55:16.084Z,9.43
2018-06-30T14:57:51.931Z,10.00
2018-06-30T15:00:27.187Z,9.50
2018-06-30T15:03:02.795Z,9.07
2018-06-30T15:05:38.241Z,9.37
2018-06-30T15:08:13.573Z,9.33
2018-06-30T15:10:49.292Z,9.57
2018-06-30T15:13:24.766Z,8.57
2018-06-30T15:16:00.259Z,9.20
2018-06-30T15:18:35.599Z,7.80
2018-06-30T15:21:10.721Z,8.80
2018-06-30T15:23:45.980Z,9.33
2018-06-30T15:26:21.336Z,9.40
2018-06-30T15:28:56.508Z,9.20
2018-06-30T15:31:31.899Z,8.43
2018-06-30T15:34:07.054Z,8.40
2018-06-30T15:36:42.288Z,8.97
2018-06-30T15:39:17.773Z,9.47
2018-06-30T15:41:53.681Z,9.20
2018-06-30T15:44:29.175Z,10.13
2018-06-30T15:47:04.631Z,9.20
2018-06-30T15:49:40.160Z,9.20
2018-06-30T15:52:15.582Z,9.27
2018-06-30T15:54:51.554Z,12.90
2018-06-30T15:57:26.960Z,8.67
2018-06-30T16:00:02.437Z,8.57
2018-06-30T16:02:37.919Z,9.60
2018-06-30T16:05:13.194Z,9.57
2018-06-30T16:07:49.028Z,9.37
2018-06-30T16:10:24.575Z,8.50
2018-06-30T16:12:59.972Z,9.07
2018-06-30T16:15:35.475Z,9.60
2018-06-30T16:18:10.816Z,8.93
2018-06-30T16:20:46.159Z,8.53
2018-06-30T16:23:21.431Z,9.80
2018-06-30T16:25:56.604Z,9.33
2018-06-30T16:28:31.742Z,10.27
2018-06-30T16:31:07.608Z,12.20
2018-06-30T16:33:43.155Z,11.03
2018-06-30T16:36:18.812Z,14.57
2018-06-30T16:38:54.031Z,11.10
2018-06-30T16:41:29.506Z,10.77
2018-06-30T16:44:05.315Z,10.93
2018-06-30T16:46:40.789Z,10.10
2018-06-30T16:49:16.247Z,10.53
2018-06-30T16:51:51.684Z,10.77
2018-06-30T16:54:27.044Z,9.50
2018-06-30T16:57:02.516Z,9.73
2018-06-30T16:59:38.005Z,10.13
2018-06-30T17:02:13.359Z,9.70
2018-06-30T17:04:49.079Z,9.93
2018-06-30T17:07:24.548Z,9.53
2018-06-30T17:09:59.969Z,10.23
2018-06-30T17:12:35.620Z,9.20
2018-06-30T17:15:11.455Z,9.77
2018-06-30T17:17:46.923Z,9.30
2018-06-30T17:20:22.699Z,10.43
2018-06-30T17:22:58.232Z,9.87
2018-06-30T17:25:33.527Z,11.03
2018-06-30T17:28:08.936Z,10.07
2018-06-30T17:30:44.281Z,10.60
2018-06-30T17:33:19.416Z,11.37
2018-06-30T17:35:55.004Z,10.80
2018-06-30T17:38:30.201Z,10.43
2018-06-30T17:41:05.472Z,10.03
2018-06-30T17:43:41.281Z,10.30
2018-06-30T17:46:16.573Z,10.97
2018-06-30T17:48:52.020Z,10.17
2018-06-30T17:51:27.348Z,10.60
2018-06-30T17:54:02.574Z,13.83
2018-06-30T17:56:38.017Z,16.07
2018-06-30T17:59:13.160Z,27.57
2018-06-30T18:01:48.505Z,27.53
2018-06-30T18:04:23.830Z,24.50
2018-06-30T18:06:59.141Z,19.97
2018-06-30T18:09:34.871Z,24.87
2018-06-30T18:12:10.588Z,28.43
2018-06-30T18:14:45.811Z,30.17
2018-06-30T18:17:21.322Z,27.17
2018-06-30T18:19:56.749Z,22.87
2018-06-30T18:22:32.362Z,22.10
2018-06-30T18:25:07.897Z,17.47
2018-06-30T18:27:43.368Z,15.90
2018-06-30T18:30:18.772Z,16.70
2018-06-30T18:32:54.234Z,16.67
2018-06-30T18:35:29.740Z,14.57
2018-06-30T18:38:05.416Z,13.17
2018-06-30T18:43:23.055Z,12.00
2018-06-30T18:45:59.181Z,12.53
2018-06-30T18:48:34.591Z,12.10
2018-06-30T18:51:10.065Z,11.60
2018-06-30T18:53:45.476Z,11.67
2018-06-30T18:56:20.684Z,11.13
2018-06-30T18:58:55.924Z,10.70
2018-06-30T19:01:31.419Z,10.93
2018-06-30T19:04:07.424Z,10.90
2018-06-30T19:06:43.391Z,10.90
2018-06-30T19:09:18.604Z,10.57
2018-06-30T19:11:53.819Z,11.63
2018-06-30T19:14:29.255Z,11.23
2018-06-30T19:17:04.728Z,11.20
2018-06-30T19:19:40.705Z,11.20
2018-06-30T19:22:16.443Z,10.90
2018-06-30T19:24:51.964Z,11.33
2018-06-30T19:27:28.166Z,11.27
2018-06-30T19:30:03.464Z,10.70
2018-06-30T19:32:38.639Z,10.80
2018-06-30T19:35:14.030Z,11.17
2018-06-30T19:37:49.500Z,10.40
2018-06-30T19:40:25.176Z,11.07
2018-06-30T19:43:00.972Z,11.17
2018-06-30T19:45:36.380Z,10.57
2018-06-30T19:48:11.801Z,11.77
2018-06-30T19:50:47.149Z,10.77
2018-06-30T19:53:22.487Z,11.33
2018-06-30T19:55:58.257Z,11.23
2018-06-30T19:58:33.392Z,10.63
2018-06-30T20:01:08.703Z,9.83
2018-06-30T20:03:44.156Z,10.83
2018-06-30T20:06:19.684Z,10.67
2018-06-30T20:08:55.139Z,10.97
2018-06-30T20:11:30.541Z,11.20
2018-06-30T20:14:06.103Z,11.93
2018-06-30T20:16:42.004Z,10.60
2018-06-30T20:19:17.536Z,10.30
2018-06-30T20:21:53.019Z,11.10
2018-06-30T20:24:28.943Z,10.57
2018-06-30T20:27:04.825Z,10.70
2018-06-30T20:29:40.165Z,11.43
2018-06-30T20:32:15.652Z,10.87
2018-06-30T20:34:51.313Z,12.63
2018-06-30T20:37:27.155Z,10.53
2018-06-30T20:40:02.543Z,10.93
2018-06-30T20:42:38.052Z,10.97
2018-06-30T20:45:13.500Z,10.60
2018-06-30T20:47:49.156Z,10.70
2018-06-30T20:50:24.648Z,10.33
2018-06-30T20:52:59.835Z,10.70
2018-06-30T20:55:35.778Z,10.67
2018-06-30T20:58:11.344Z,10.40
2018-06-30T21:00:46.696Z,10.57
2018-06-30T21:03:22.269Z,10.57
2018-06-30T21:05:57.400Z,14.07
2018-06-30T21:08:32.719Z,9.50
2018-06-30T21:11:07.857Z,10.57
2018-06-30T21:13:43.011Z,13.77
2018-06-30T21:16:18.389Z,13.47
2018-06-30T21:18:53.676Z,18.37
2018-06-30T21:21:28.971Z,11.63
2018-06-30T21:24:04.304Z,15.07
2018-06-30T21:26:39.465Z,14.67
2018-06-30T21:29:15.048Z,17.73
2018-06-30T21:31:50.238Z,15.03
2018-06-30T21:34:25.555Z,19.77
2018-06-30T21:37:00.700Z,29.20
2018-06-30T21:39:35.868Z,30.67
2018-06-30T21:42:10.991Z,24.63
2018-06-30T21:44:46.142Z,20.37
2018-06-30T21:47:21.374Z,20.17
2018-06-30T21:49:56.725Z,16.03
2018-06-30T21:52:31.880Z,15.63
2018-06-30T21:55:07.720Z,17.83
2018-06-30T21:57:43.192Z,22.93
2018-06-30T22:00:22.999Z,19.10
2018-06-30T22:02:58.224Z,18.00
2018-06-30T22:05:34.171Z,15.10
2018-06-30T22:08:09.445Z,14.37
2018-06-30T22:10:44.783Z,13.47
2018-06-30T22:13:20.342Z,13.23
2018-06-30T22:15:55.752Z,12.57
2018-06-30T22:18:31.167Z,13.27
2018-06-30T22:21:06.541Z,14.43
2018-06-30T22:23:41.749Z,14.93
2018-06-30T22:26:16.993Z,15.07
2018-06-30T22:28:52.743Z,13.43
2018-06-30T22:31:28.441Z,12.60
2018-06-30T22:34:05.632Z,14.13
2018-06-30T22:36:41.484Z,12.90
2018-06-30T22:39:21.161Z,13.13
2018-06-30T22:41:56.697Z,12.47
2018-06-30T22:44:32.159Z,12.80
2018-06-30T22:47:07.575Z,12.80
2018-06-30T22:49:42.844Z,12.03
2018-06-30T22:52:18.389Z,12.07
2018-06-30T22:54:53.631Z,14.07
2018-06-30T22:57:28.968Z,12.73
2018-06-30T23:00:05.937Z,13.83
2018-06-30T23:02:41.108Z,13.10
2018-06-30T23:05:16.506Z,13.67
2018-06-30T23:07:52.794Z,16.87
2018-06-30T23:10:27.901Z,13.57
2018-06-30T23:13:03.160Z,12.37
2018-06-30T23:15:38.591Z,13.30
2018-06-30T23:18:14.104Z,16.37
2018-06-30T23:20:49.199Z,13.10
2018-06-30T23:23:24.413Z,12.50
2018-06-30T23:25:59.740Z,12.70
2018-06-30T23:28:35.279Z,14.30
2018-06-30T23:31:10.528Z,12.07
2018-06-30T23:33:45.877Z,13.63
2018-06-30T23:36:21.346Z,14.50
2018-06-30T23:38:56.691Z,12.47
2018-06-30T23:41:31.949Z,13.83
2018-06-30T23:44:07.464Z,13.27
2018-06-30T23:46:42.712Z,13.33
2018-06-30T23:49:18.161Z,13.20
2018-06-30T23:51:53.524Z,12.90
2018-06-30T23:54:28.716Z,13.10
2018-06-30T23:57:04.165Z,13.87
2018-06-30T23:59:39.704Z,14.43
